createdAt,value
2023-04-16T00:00:05.912Z,8.89
2023-04-16T00:02:33.673Z,8.93
2023-04-16T00:05:01.565Z,8.93
2023-04-16T00:07:29.329Z,8.85
2023-04-16T00:09:57.056Z,8.86
2023-04-16T00:12:24.790Z,8.85
2023-04-16T00:14:52.548Z,8.88
2023-04-16T00:17:21.638Z,8.89
2023-04-16T00:19:49.286Z,8.89
2023-04-16T00:22:17.021Z,8.93
2023-04-16T00:24:44.710Z,8.96
2023-04-16T00:27:12.405Z,8.95
2023-04-16T00:29:40.132Z,8.97
2023-04-16T00:32:08.198Z,8.93
2023-04-16T00:34:37.281Z,8.84
2023-04-16T00:37:04.964Z,8.85
2023-04-16T00:39:32.578Z,8.84
2023-04-16T00:42:00.268Z,8.80
2023-04-16T00:44:27.933Z,8.87
2023-04-16T00:46:57.093Z,8.85
2023-04-16T00:49:25.253Z,8.80
2023-04-16T00:51:54.340Z,8.78
2023-04-16T00:54:22.293Z,8.78
2023-04-16T00:56:50.331Z,8.81
2023-04-16T00:59:18.115Z,8.81
2023-04-16T01:01:45.882Z,8.84
2023-04-16T01:04:13.764Z,8.84
2023-04-16T01:06:41.455Z,8.86
2023-04-16T01:09:11.297Z,8.70
2023-04-16T01:11:39.772Z,8.82
2023-04-16T01:14:07.404Z,8.83
2023-04-16T01:16:35.158Z,8.83
2023-04-16T01:19:02.889Z,8.89
2023-04-16T01:21:32.412Z,8.89
2023-04-16T01:24:03.648Z,8.90
2023-04-16T01:26:31.445Z,8.91
2023-04-16T01:28:59.559Z,8.89
2023-04-16T01:31:27.541Z,8.89
2023-04-16T01:33:55.252Z,8.87
2023-04-16T01:36:22.969Z,8.84
2023-04-16T01:38:52.151Z,8.89
2023-04-16T01:41:19.919Z,8.92
2023-04-16T01:43:47.599Z,8.93
2023-04-16T01:46:19.330Z,8.90
2023-04-16T01:48:47.979Z,8.88
2023-04-16T01:51:15.709Z,8.86
2023-04-16T01:53:43.469Z,8.91
2023-04-16T01:56:12.860Z,8.91
2023-04-16T01:58:42.691Z,8.99
2023-04-16T02:01:10.603Z,9.05
2023-04-16T02:03:38.646Z,8.96
2023-04-16T02:06:06.743Z,9.01
2023-04-16T02:08:34.747Z,8.99
2023-04-16T02:11:02.816Z,8.98
2023-04-16T02:13:31.898Z,8.96
2023-04-16T02:15:59.691Z,9.04
2023-04-16T02:18:27.820Z,9.03
2023-04-16T02:20:55.596Z,8.99
2023-04-16T02:23:23.325Z,8.77
2023-04-16T02:25:51.045Z,8.99
2023-04-16T02:28:18.957Z,8.90
2023-04-16T02:30:48.081Z,8.94
2023-04-16T02:33:15.988Z,8.94
2023-04-16T02:35:43.805Z,8.99
2023-04-16T02:38:11.541Z,9.07
2023-04-16T02:40:39.409Z,9.06
2023-04-16T02:43:07.129Z,9.03
2023-04-16T02:45:34.861Z,8.82
2023-04-16T02:48:04.033Z,9.04
2023-04-16T02:50:31.779Z,9.05
2023-04-16T02:52:59.603Z,9.05
2023-04-16T02:55:29.354Z,8.96
2023-04-16T02:57:57.127Z,8.97
2023-04-16T03:00:24.994Z,8.92
2023-04-16T03:02:52.918Z,8.88
2023-04-16T03:05:22.203Z,9.00
2023-04-16T03:07:50.687Z,9.00
2023-04-16T03:10:18.600Z,8.99
2023-04-16T03:12:46.350Z,9.01
2023-04-16T03:15:14.133Z,8.97
2023-04-16T03:17:41.901Z,8.98
2023-04-16T03:20:10.717Z,8.95
2023-04-16T03:22:39.971Z,8.94
2023-04-16T03:25:08.587Z,8.89
2023-04-16T03:27:36.564Z,8.85
2023-04-16T03:30:04.850Z,8.60
2023-04-16T03:32:32.642Z,8.90
2023-04-16T03:35:00.576Z,8.93
2023-04-16T03:37:28.525Z,8.89
2023-04-16T03:39:57.651Z,8.81
2023-04-16T03:42:25.566Z,8.79
2023-04-16T03:44:53.799Z,8.83
2023-04-16T03:47:21.712Z,8.93
2023-04-16T03:49:49.490Z,8.92
2023-04-16T03:52:17.373Z,8.89
2023-04-16T03:54:46.715Z,8.85
2023-04-16T03:57:15.823Z,8.69
2023-04-16T03:59:43.503Z,8.86
2023-04-16T04:02:11.275Z,8.83
2023-04-16T04:04:39.094Z,8.73
2023-04-16T04:07:06.882Z,8.81
2023-04-16T04:09:34.669Z,8.82
2023-04-16T04:12:03.185Z,8.83
2023-04-16T04:14:32.373Z,8.66
2023-04-16T04:17:00.220Z,8.85
2023-04-16T04:19:28.191Z,8.84
2023-04-16T04:21:55.941Z,8.87
2023-04-16T04:24:23.725Z,8.85
2023-04-16T04:26:51.528Z,8.68
2023-04-16T04:29:19.207Z,8.93
2023-04-16T04:31:48.559Z,8.88
2023-04-16T04:34:16.414Z,8.84
2023-04-16T04:36:44.121Z,8.83
2023-04-16T04:39:11.935Z,8.77
2023-04-16T04:41:39.717Z,8.81
2023-04-16T04:44:07.406Z,8.84
2023-04-16T04:46:35.290Z,8.85
2023-04-16T04:49:04.481Z,8.63
2023-04-16T04:51:32.293Z,8.91
2023-04-16T04:54:00.430Z,8.89
2023-04-16T04:56:28.548Z,8.84
2023-04-16T04:58:56.685Z,8.87
2023-04-16T05:01:24.565Z,8.90
2023-04-16T05:03:52.382Z,8.82
2023-04-16T05:06:21.529Z,8.84
2023-04-16T05:08:49.229Z,8.88
2023-04-16T05:11:17.013Z,8.85
2023-04-16T05:13:44.689Z,8.87
2023-04-16T05:16:12.391Z,8.90
2023-04-16T05:18:40.200Z,8.96
2023-04-16T05:21:07.938Z,8.92
2023-04-16T05:23:37.424Z,8.90
2023-04-16T05:26:05.339Z,8.94
2023-04-16T05:28:33.906Z,8.92
2023-04-16T05:31:01.718Z,8.96
2023-04-16T05:33:29.565Z,8.99
2023-04-16T05:35:57.260Z,9.05
2023-04-16T05:38:25.047Z,9.07
2023-04-16T05:40:54.147Z,9.01
2023-04-16T05:43:21.966Z,8.99
2023-04-16T05:45:49.661Z,8.95
2023-04-16T05:48:17.704Z,8.99
2023-04-16T05:50:45.422Z,8.65
2023-04-16T05:53:14.021Z,8.90
2023-04-16T05:55:41.765Z,8.92
2023-04-16T05:58:10.866Z,9.06
2023-04-16T06:00:38.632Z,9.04
2023-04-16T06:03:06.687Z,9.05
2023-04-16T06:05:34.605Z,8.99
2023-04-16T06:08:03.101Z,8.98
2023-04-16T06:10:30.899Z,8.97
2023-04-16T06:12:58.827Z,9.02
2023-04-16T06:15:28.284Z,8.99
2023-04-16T06:17:58.415Z,8.99
2023-04-16T06:20:27.481Z,9.10
2023-04-16T06:22:55.316Z,9.13
2023-04-16T06:25:23.169Z,8.83
2023-04-16T06:27:50.947Z,9.01
2023-04-16T06:30:19.852Z,9.05
2023-04-16T06:32:49.106Z,8.88
2023-04-16T06:35:17.015Z,8.87
2023-04-16T06:37:44.681Z,9.02
2023-04-16T06:40:13.100Z,9.08
2023-04-16T06:42:41.471Z,9.09
2023-04-16T06:45:11.344Z,9.10
2023-04-16T06:47:39.128Z,9.17
2023-04-16T06:50:09.290Z,9.21
2023-04-16T06:52:37.227Z,9.19
2023-04-16T06:55:05.825Z,9.23
2023-04-16T06:57:35.142Z,9.22
2023-04-16T07:00:05.074Z,9.25
2023-04-16T07:02:33.083Z,9.21
2023-04-16T07:05:00.933Z,9.21
2023-04-16T07:07:31.021Z,9.25
2023-04-16T07:09:58.940Z,9.27
2023-04-16T07:12:27.753Z,9.29
2023-04-16T07:14:55.726Z,9.36
2023-04-16T07:17:23.497Z,9.35
2023-04-16T07:19:52.447Z,9.34
2023-04-16T07:22:20.435Z,9.42
2023-04-16T07:24:49.513Z,9.41
2023-04-16T07:27:17.930Z,9.32
2023-04-16T07:29:46.113Z,9.33
2023-04-16T07:32:15.391Z,9.40
2023-04-16T07:34:43.562Z,9.17
2023-04-16T07:37:11.579Z,9.46
2023-04-16T07:39:39.386Z,9.49
2023-04-16T07:42:08.511Z,9.50
2023-04-16T07:44:36.351Z,9.51
2023-04-16T07:47:05.520Z,9.49
2023-04-16T07:49:34.222Z,9.54
2023-04-16T07:52:02.042Z,9.54
2023-04-16T07:54:29.870Z,9.70
2023-04-16T07:56:57.631Z,9.73
2023-04-16T07:59:27.509Z,9.69
2023-04-16T08:01:55.643Z,9.72
2023-04-16T08:04:25.874Z,9.61
2023-04-16T08:06:54.468Z,9.66
2023-04-16T08:09:23.594Z,9.79
2023-04-16T08:11:51.363Z,9.85
2023-04-16T08:14:19.440Z,9.74
2023-04-16T08:16:48.529Z,9.75
2023-04-16T08:19:16.299Z,9.74
2023-04-16T08:21:44.146Z,9.75
2023-04-16T08:24:12.100Z,9.70
2023-04-16T08:26:39.917Z,9.74
2023-04-16T08:29:07.997Z,9.87
2023-04-16T08:31:36.412Z,9.78
2023-04-16T08:34:06.120Z,9.87
2023-04-16T08:36:34.096Z,9.94
2023-04-16T08:39:01.829Z,9.96
2023-04-16T08:41:32.213Z,10.00
2023-04-16T08:44:03.543Z,10.03
2023-04-16T08:46:32.827Z,9.99
2023-04-16T08:49:02.094Z,9.88
2023-04-16T08:51:35.751Z,9.84
2023-04-16T08:54:06.148Z,9.98
2023-04-16T08:56:37.622Z,9.99
2023-04-16T08:59:06.337Z,9.96
2023-04-16T09:01:34.160Z,10.09
2023-04-16T09:04:02.637Z,10.09
2023-04-16T09:06:34.157Z,10.03
2023-04-16T09:09:04.603Z,10.14
2023-04-16T09:11:32.421Z,9.84
2023-04-16T09:14:02.079Z,10.02
2023-04-16T09:16:34.892Z,10.08
2023-04-16T09:19:02.680Z,10.02
2023-04-16T09:21:32.228Z,10.04
2023-04-16T09:24:01.138Z,10.14
2023-04-16T09:26:29.393Z,10.22
2023-04-16T09:28:57.113Z,10.26
2023-04-16T09:31:24.922Z,10.27
2023-04-16T09:34:06.529Z,9.84
2023-04-16T09:36:36.294Z,10.22
2023-04-16T09:39:05.088Z,10.14
2023-04-16T09:41:36.022Z,10.33
2023-04-16T09:44:05.745Z,10.28
2023-04-16T09:46:36.322Z,10.36
2023-04-16T09:49:07.250Z,10.40
2023-04-16T09:51:39.831Z,10.42
2023-04-16T09:54:07.721Z,10.51
2023-04-16T09:56:40.412Z,10.47
2023-04-16T09:59:08.782Z,10.40
2023-04-16T10:01:38.425Z,10.49
2023-04-16T10:04:08.046Z,10.40
2023-04-16T10:06:35.918Z,10.44
2023-04-16T10:09:08.990Z,10.48
2023-04-16T10:11:37.006Z,10.65
2023-04-16T10:14:04.888Z,10.58
2023-04-16T10:16:34.595Z,10.61
2023-04-16T10:19:03.213Z,10.46
2023-04-16T10:21:34.242Z,10.71
2023-04-16T10:24:02.907Z,10.62
2023-04-16T10:26:32.650Z,10.70
2023-04-16T10:29:01.475Z,10.85
2023-04-16T10:31:29.490Z,10.91
2023-04-16T10:33:57.921Z,10.86
2023-04-16T10:36:27.558Z,10.93
2023-04-16T10:39:00.583Z,11.08
2023-04-16T10:41:28.903Z,11.23
2023-04-16T10:44:09.464Z,11.10
2023-04-16T10:46:39.937Z,10.98
2023-04-16T10:49:15.332Z,11.19
2023-04-16T10:51:43.538Z,11.30
2023-04-16T10:54:23.969Z,11.16
2023-04-16T10:56:51.951Z,11.43
2023-04-16T10:59:22.417Z,11.51
2023-04-16T11:01:52.549Z,11.55
2023-04-16T11:04:34.611Z,11.56
2023-04-16T11:07:08.062Z,11.51
2023-04-16T11:10:02.012Z,11.32
2023-04-16T11:12:35.916Z,11.31
2023-04-16T11:15:07.062Z,11.55
2023-04-16T11:17:38.867Z,11.52
2023-04-16T11:20:17.443Z,11.45
2023-04-16T11:22:48.806Z,11.56
2023-04-16T11:25:21.646Z,11.61
2023-04-16T11:27:49.438Z,11.75
2023-04-16T11:30:19.576Z,11.83
2023-04-16T11:32:47.403Z,11.85
2023-04-16T11:35:17.633Z,11.47
2023-04-16T11:37:45.800Z,11.63
2023-04-16T11:40:14.091Z,11.48
2023-04-16T11:42:44.534Z,11.54
2023-04-16T11:45:14.011Z,11.26
2023-04-16T11:47:47.041Z,11.60
2023-04-16T11:50:19.499Z,11.63
2023-04-16T11:52:48.036Z,11.62
2023-04-16T11:55:16.004Z,11.77
2023-04-16T11:57:43.784Z,11.64
2023-04-16T12:00:13.858Z,11.77
2023-04-16T12:02:43.010Z,11.90
2023-04-16T12:05:31.947Z,11.99
2023-04-16T12:08:00.835Z,12.05
2023-04-16T12:10:28.945Z,12.05
2023-04-16T12:13:10.295Z,12.05
2023-04-16T12:15:45.950Z,12.15
2023-04-16T12:18:14.867Z,12.30
2023-04-16T12:20:44.804Z,12.44
2023-04-16T12:23:23.052Z,12.61
2023-04-16T12:25:52.184Z,12.49
2023-04-16T12:28:29.416Z,12.47
2023-04-16T12:30:57.764Z,12.50
2023-04-16T12:33:25.908Z,12.56
2023-04-16T12:35:55.165Z,12.54
2023-04-16T12:38:24.494Z,12.67
2023-04-16T12:40:52.770Z,12.74
2023-04-16T12:43:23.733Z,12.72
2023-04-16T12:45:51.533Z,12.95
2023-04-16T12:48:19.307Z,12.96
2023-04-16T12:50:47.326Z,13.12
2023-04-16T12:53:16.486Z,13.47
2023-04-16T12:55:45.400Z,13.74
2023-04-16T12:58:13.171Z,14.08
2023-04-16T13:00:41.524Z,14.30
2023-04-16T13:03:09.446Z,14.40
2023-04-16T13:05:37.318Z,14.20
2023-04-16T13:08:05.180Z,14.41
2023-04-16T13:10:34.451Z,14.09
2023-04-16T13:13:02.184Z,14.13
2023-04-16T13:15:30.118Z,13.91
2023-04-16T13:17:57.996Z,13.65
2023-04-16T13:20:25.730Z,13.62
2023-04-16T13:22:53.549Z,13.31
2023-04-16T13:25:21.406Z,13.24
2023-04-16T13:27:50.653Z,13.12
2023-04-16T13:30:18.391Z,13.02
2023-04-16T13:32:46.912Z,13.20
2023-04-16T13:35:14.828Z,12.75
2023-04-16T13:37:43.179Z,12.82
2023-04-16T13:40:11.039Z,12.91
2023-04-16T13:42:38.825Z,12.87
2023-04-16T13:45:09.488Z,13.11
2023-04-16T13:47:37.532Z,13.17
2023-04-16T13:50:06.073Z,13.33
2023-04-16T13:52:33.734Z,13.26
2023-04-16T13:55:01.769Z,13.43
2023-04-16T13:57:29.854Z,13.46
2023-04-16T13:59:57.666Z,13.27
2023-04-16T14:02:27.260Z,13.35
2023-04-16T14:04:55.001Z,13.40
2023-04-16T14:07:26.713Z,13.40
2023-04-16T14:09:54.412Z,13.35
2023-04-16T14:12:22.170Z,13.19
2023-04-16T14:14:50.089Z,13.29
2023-04-16T14:17:17.767Z,13.28
2023-04-16T14:19:46.844Z,13.26
2023-04-16T14:22:17.725Z,13.27
2023-04-16T14:24:45.503Z,13.18
2023-04-16T14:27:13.628Z,13.25
2023-04-16T14:29:41.407Z,13.23
2023-04-16T14:32:09.605Z,13.16
2023-04-16T14:34:37.438Z,13.11
2023-04-16T14:37:07.085Z,12.81
2023-04-16T14:39:34.892Z,13.17
2023-04-16T14:42:02.864Z,13.29
2023-04-16T14:44:30.755Z,13.39
2023-04-16T14:46:58.442Z,13.40
2023-04-16T14:49:27.115Z,13.31
2023-04-16T14:51:54.940Z,13.11
2023-04-16T14:54:24.305Z,13.16
2023-04-16T14:56:52.007Z,13.04
2023-04-16T14:59:19.716Z,12.97
2023-04-16T15:01:47.687Z,12.90
2023-04-16T15:04:16.114Z,12.93
2023-04-16T15:06:44.142Z,12.73
2023-04-16T15:09:12.184Z,12.66
2023-04-16T15:11:41.598Z,12.86
2023-04-16T15:14:09.454Z,12.87
2023-04-16T15:16:37.528Z,12.88
2023-04-16T15:19:05.488Z,12.91
2023-04-16T15:21:33.174Z,12.82
2023-04-16T15:24:01.340Z,12.88
2023-04-16T15:26:29.269Z,12.77
2023-04-16T15:28:58.597Z,12.81
2023-04-16T15:31:26.821Z,12.78
2023-04-16T15:33:54.798Z,12.90
2023-04-16T15:36:22.788Z,13.10
2023-04-16T15:38:50.567Z,12.88
2023-04-16T15:41:18.401Z,13.04
2023-04-16T15:43:46.313Z,12.55
2023-04-16T15:46:16.380Z,12.85
2023-04-16T15:48:44.352Z,13.02
2023-04-16T15:51:12.434Z,13.01
2023-04-16T15:53:40.204Z,12.89
2023-04-16T15:56:08.023Z,12.85
2023-04-16T15:58:36.137Z,12.97
2023-04-16T16:01:04.045Z,12.98
2023-04-16T16:03:36.032Z,12.93
2023-04-16T16:06:04.998Z,12.85
2023-04-16T16:08:35.640Z,12.89
2023-04-16T16:11:04.120Z,12.59
2023-04-16T16:13:32.019Z,12.73
2023-04-16T16:15:59.824Z,12.72
2023-04-16T16:18:28.200Z,12.79
2023-04-16T16:20:59.117Z,12.74
2023-04-16T16:23:27.342Z,12.63
2023-04-16T16:25:55.626Z,12.63
2023-04-16T16:28:24.254Z,12.61
2023-04-16T16:30:54.636Z,12.57
2023-04-16T16:33:22.559Z,12.49
2023-04-16T16:35:50.447Z,12.43
2023-04-16T16:38:19.856Z,12.40
2023-04-16T16:40:47.550Z,12.37
2023-04-16T16:43:15.418Z,12.33
2023-04-16T16:45:43.236Z,12.35
2023-04-16T16:48:10.948Z,12.25
2023-04-16T16:50:38.798Z,12.20
2023-04-16T16:53:06.728Z,12.19
2023-04-16T16:55:36.364Z,12.14
2023-04-16T16:58:04.248Z,12.08
2023-04-16T17:00:32.839Z,12.02
2023-04-16T17:03:00.827Z,11.99
2023-04-16T17:05:29.047Z,11.82
2023-04-16T17:07:56.680Z,11.58
2023-04-16T17:10:24.600Z,11.32
2023-04-16T17:12:53.871Z,11.53
2023-04-16T17:15:22.088Z,11.45
2023-04-16T17:17:49.993Z,11.37
2023-04-16T17:20:17.811Z,11.37
2023-04-16T17:22:45.693Z,11.32
2023-04-16T17:25:13.450Z,11.41
2023-04-16T17:27:41.371Z,11.41
2023-04-16T17:30:11.284Z,11.34
2023-04-16T17:32:39.250Z,11.32
2023-04-16T17:35:09.124Z,11.13
2023-04-16T17:37:36.879Z,11.16
2023-04-16T17:40:07.478Z,10.86
2023-04-16T17:42:35.746Z,10.91
2023-04-16T17:45:04.033Z,10.96
2023-04-16T17:47:35.668Z,10.84
2023-04-16T17:50:03.698Z,10.74
2023-04-16T17:52:31.580Z,10.83
2023-04-16T17:55:01.617Z,10.84
2023-04-16T17:57:29.676Z,10.81
2023-04-16T17:59:57.522Z,10.89
2023-04-16T18:02:26.123Z,10.64
2023-04-16T18:04:55.440Z,10.65
2023-04-16T18:07:23.275Z,10.65
2023-04-16T18:09:51.181Z,10.78
2023-04-16T18:12:19.153Z,10.52
2023-04-16T18:14:46.927Z,10.65
2023-04-16T18:17:14.707Z,10.65
2023-04-16T18:19:44.278Z,10.60
2023-04-16T18:22:13.716Z,10.66
2023-04-16T18:24:41.656Z,10.61
2023-04-16T18:27:09.542Z,10.60
2023-04-16T18:29:39.691Z,10.66
2023-04-16T18:32:11.681Z,10.61
2023-04-16T18:34:40.070Z,10.58
2023-04-16T18:37:10.873Z,10.59
2023-04-16T18:39:40.101Z,10.55
2023-04-16T18:42:08.288Z,10.47
2023-04-16T18:44:36.171Z,10.42
2023-04-16T18:47:04.265Z,10.45
2023-04-16T18:49:32.466Z,10.50
2023-04-16T18:52:00.403Z,10.36
2023-04-16T18:54:28.776Z,10.30
2023-04-16T18:56:59.676Z,10.19
2023-04-16T18:59:28.923Z,10.28
2023-04-16T19:01:58.848Z,10.30
2023-04-16T19:04:27.272Z,10.29
2023-04-16T19:06:55.197Z,10.28
2023-04-16T19:09:22.956Z,10.24
2023-04-16T19:11:51.113Z,10.29
2023-04-16T19:14:20.617Z,10.24
2023-04-16T19:16:48.466Z,9.87
2023-04-16T19:19:16.220Z,10.05
2023-04-16T19:21:43.900Z,10.00
2023-04-16T19:24:11.724Z,9.98
2023-04-16T19:26:39.466Z,9.87
2023-04-16T19:29:07.241Z,9.88
2023-04-16T19:31:37.183Z,9.94
2023-04-16T19:34:04.929Z,9.91
2023-04-16T19:36:32.716Z,9.91
2023-04-16T19:39:00.449Z,9.80
2023-04-16T19:41:28.418Z,9.87
2023-04-16T19:43:56.151Z,9.89
2023-04-16T19:46:23.986Z,9.80
2023-04-16T19:48:53.249Z,9.83
2023-04-16T19:51:21.171Z,9.74
2023-04-16T19:53:49.160Z,9.80
2023-04-16T19:56:17.183Z,9.83
2023-04-16T19:58:44.911Z,9.85
2023-04-16T20:01:12.926Z,9.83
2023-04-16T20:03:41.032Z,9.78
2023-04-16T20:06:10.268Z,9.63
2023-04-16T20:08:37.967Z,9.69
2023-04-16T20:11:08.698Z,9.75
2023-04-16T20:13:37.495Z,9.69
2023-04-16T20:16:05.549Z,9.78
2023-04-16T20:18:38.156Z,9.79
2023-04-16T20:21:06.164Z,9.76
2023-04-16T20:23:36.082Z,9.57
2023-04-16T20:26:04.465Z,9.58
2023-04-16T20:28:32.197Z,9.75
2023-04-16T20:31:00.034Z,9.62
2023-04-16T20:33:28.249Z,9.80
2023-04-16T20:35:56.242Z,9.79
2023-04-16T20:38:24.706Z,9.74
2023-04-16T20:41:06.225Z,9.76
2023-04-16T20:43:38.450Z,9.71
2023-04-16T20:46:07.032Z,9.74
2023-04-16T20:48:35.177Z,9.45
2023-04-16T20:51:04.602Z,9.68
2023-04-16T20:53:33.198Z,9.62
2023-04-16T20:56:02.330Z,9.38
2023-04-16T20:58:30.812Z,9.54
2023-04-16T21:00:59.052Z,9.54
2023-04-16T21:03:27.458Z,9.58
2023-04-16T21:05:56.287Z,9.55
2023-04-16T21:08:24.477Z,9.60
2023-04-16T21:10:52.221Z,9.59
2023-04-16T21:13:21.886Z,9.41
2023-04-16T21:15:49.588Z,9.33
2023-04-16T21:18:18.601Z,9.44
2023-04-16T21:20:46.324Z,9.42
2023-04-16T21:23:14.147Z,9.50
2023-04-16T21:25:41.899Z,9.41
2023-04-16T21:28:09.651Z,9.48
2023-04-16T21:30:39.580Z,9.49
2023-04-16T21:33:07.911Z,9.42
2023-04-16T21:35:35.847Z,9.44
2023-04-16T21:38:03.654Z,9.34
2023-04-16T21:40:31.446Z,9.24
2023-04-16T21:42:59.803Z,9.23
2023-04-16T21:45:29.985Z,9.38
2023-04-16T21:47:59.862Z,9.25
2023-04-16T21:50:28.675Z,9.28
2023-04-16T21:52:56.464Z,9.24
2023-04-16T21:55:24.645Z,9.20
2023-04-16T21:57:52.464Z,9.24
2023-04-16T22:00:21.192Z,9.28
2023-04-16T22:02:48.934Z,9.30
2023-04-16T22:05:19.991Z,9.34
2023-04-16T22:07:47.736Z,9.27
2023-04-16T22:10:15.720Z,9.23
2023-04-16T22:12:45.104Z,9.30
2023-04-16T22:15:13.872Z,9.33
2023-04-16T22:17:41.929Z,9.36
2023-04-16T22:20:13.061Z,9.12
2023-04-16T22:22:42.900Z,8.92
2023-04-16T22:25:12.149Z,8.95
2023-04-16T22:27:39.907Z,8.69
2023-04-16T22:30:09.339Z,8.62
2023-04-16T22:32:37.065Z,8.93
2023-04-16T22:35:05.291Z,8.97
2023-04-16T22:37:33.543Z,9.07
2023-04-16T22:40:07.933Z,9.04
2023-04-16T22:42:35.640Z,9.15
2023-04-16T22:45:04.565Z,9.21
2023-04-16T22:47:32.363Z,9.15
2023-04-16T22:50:00.491Z,9.09
2023-04-16T22:52:28.582Z,8.92
2023-04-16T22:54:56.474Z,8.95
2023-04-16T22:57:26.710Z,8.93
2023-04-16T22:59:54.554Z,9.02
2023-04-16T23:02:22.630Z,9.05
2023-04-16T23:04:50.500Z,9.05
2023-04-16T23:07:18.313Z,8.93
2023-04-16T23:09:46.033Z,9.05
2023-04-16T23:12:14.174Z,9.07
2023-04-16T23:14:45.824Z,9.10
2023-04-16T23:17:13.995Z,9.06
2023-04-16T23:19:42.092Z,9.14
2023-04-16T23:22:10.018Z,9.18
2023-04-16T23:24:37.800Z,9.15
2023-04-16T23:27:05.491Z,9.11
2023-04-16T23:29:33.261Z,9.03
2023-04-16T23:32:02.902Z,8.99
2023-04-16T23:34:30.805Z,8.83
2023-04-16T23:36:58.720Z,8.91
2023-04-16T23:39:27.443Z,8.91
2023-04-16T23:41:56.591Z,8.86
2023-04-16T23:44:24.550Z,8.93
2023-04-16T23:46:52.316Z,8.95
2023-04-16T23:49:21.498Z,8.90
2023-04-16T23:51:49.420Z,8.85
2023-04-16T23:54:17.206Z,8.72
2023-04-16T23:56:44.914Z,8.81
2023-04-16T23:59:12.839Z,8.56
